CheckWX is a tool to help pilots better visualize weather data.  It is not intended as a substitute for an official pre-flight weather briefing.

12:20:13 UTC

KBEC METAR
Beech Factory Airport
Wichita, Kansas, USA
Current

25 mins ago

KBEC 161155Z AUTO 23004KT 10SM CLR 21/20 A2994 RMK AO2 T02130195 10222 20200
Observed
Jul-16 @ 11:55 UTC
Wind
  • 230° at 4 KTS
Visibility
10 SM
Flight Rules
VFR
Cloud Levels
  • Clear skies
Temperature
21°C / 70°F
Dewpoint
20°C / 68°F
Humidity
94%
Altimeter
29.94" Hg
Pressure
1013.92 hPa
Previous

45 mins ago

KBEC 161135Z AUTO 22004KT 10SM CLR 20/19 A2993 RMK AO2 T02010189
Observed
Jul-16 @ 11:35 UTC
Wind
  • 220° at 4 KTS
Visibility
10 SM
Flight Rules
VFR
Cloud Levels
  • Clear skies
Temperature
20°C / 68°F
Dewpoint
19°C / 66°F
Humidity
94%
Altimeter
29.93" Hg
Pressure
1013.52 hPa
Previous

1 hour ago

KBEC 161115Z AUTO 21003KT 10SM CLR 20/19 A2993 RMK AO2 T02020191
Observed
Jul-16 @ 11:15 UTC
Wind
  • 210° at 3 KTS
Visibility
10 SM
Flight Rules
VFR
Cloud Levels
  • Clear skies
Temperature
20°C / 68°F
Dewpoint
19°C / 66°F
Humidity
94%
Altimeter
29.93" Hg
Pressure
1013.52 hPa